KJFK/JFK METAR and TAF weather

Enter ICAO airport designator
Station Type Date Time Source
KJFK METAR 2020/11/28 19:51 UTC NOAA

KJFK 281951Z 32015KT 10SM SCT055 BKN070 12/02 A2996 RMK AO2 SLP145 T01220022


Station Type Date Time Source
KJFK Decoded METAR 2020/11/28 19:51 UTC NOAA

KENNEDY INTERNATIONAL AIRPORT , NY, United States (KJFK) 40-38N 073-46W 9M
Nov 28, 2020 - 02:51 PM EST / 2020.11.28 1951 UTC
Wind: from the NW (320 degrees) at 17 MPH (15 KT):0
Visibility: 10 mile(s):0
Sky conditions: mostly cloudy
Temperature: 54.0 F (12.2 C)
Dew Point: 36.0 F (2.2 C)
Relative Humidity: 50%
Pressure (altimeter): 29.96 in. Hg (1014 hPa)
ob: KJFK 281951Z 32015KT 10SM SCT055 BKN070 12/02 A2996 RMK AO2 SLP145 T01220022
cycle: 20

Station Type Date Time Source
KJFK TAF 2020/11/28 18:37 UTC NOAA

TAF KJFK 281733Z 2818/2924 26010KT P6SM SCT040
FM282000 28010G15KT P6SM BKN050
FM290200 31010KT P6SM FEW050
FM290900 26006KT P6SM FEW060 FEW100
FM291700 24009KT P6SM FEW060 FEW100

Example: see airport list